Airfield :
LOGIN :

Register | Disclaimer

   EN    FR    IT 

 










Legend :    VFR   Marginal VFR   IFR   Intensive IFR   Very Intensive IFR
Visi :
Ceiling :
>= 8 km
>= 3000ft
5 to 8 km
1000 to 3000 ft
1500m to 5 km
500 to 1000 ft
800 to 1500m
200 to 500 ft
< 800m
< 200 ft
Symbols :   Thunderstorms  Fog  Heavy snow  Heavy precipitations  Wind > 20 kt
SIGMETs :     Misc.  Thunderstorms  Icing  Turbulence  Mountain Waves  Volcanic Ashes






- Airport Elevation : 137 ft
- IATA code : ARN


ESSA - Stockholm-Arlanda

CURRENT METAR :
  • 272020Z 35004KT 9999 BKN041 M02/M06 Q0998 R01L/29//95 R08/19//95 R01R/SNOCLO TEMPO 4000 SN VV014

EXPIRED METARs :
  • 271950Z 02006KT 9999 FEW018 BKN044 M02/M06 Q0997 R01L/29//95 R08/19//95 R01R/SNOCLO TEMPO 4000 SN VV014
  • 271920Z 03007KT 9999 BKN043 M02/M05 Q0997 R01L/29//95 R08/19//95 R01R/SNOCLO TEMPO 4000 SN VV014
  • 271850Z 02006KT 9999 BKN029 M02/M05 Q0997 R01L/29//95 R08/19//95 R01R/SNOCLO TEMPO 4000 SN VV014
  • 271820Z 03007KT 9999 -SN BKN025 M02/M05 Q0997 R01L/29//95 R08/19//95 R01R/SNOCLO TEMPO 4000 SN VV014
  • 271750Z 02008KT 9999 -SN BKN025 M02/M04 Q0997 R01L/29//95 R08/19//95 R01R/SNOCLO TEMPO 4000 SN VV014

TAF TAF ESSA
Valid from the 27 at 18:00 until the 28 at 18:00 UTC


271730Z 2718/2818 02008KT 9000 -SN BKN030
PROB40 2718/2720 BKN014



MET'MAP, your aeronautical weather chart ! - Copyright ORBIFLY December 2007 - Disclaimer

ORBIFLY MET'MAP TEAM :

Programming & Development : Alexandra Zaïnal
Concept & original design : Baudouin d'Aumeries
Assistance for programming : Marc-Olivier Méhu
Technical & hardware support : Manuel Goepfert

Contact : metmap@orbifly.com




SOURCES & CREDITS :

   NOAA